Aérodrome :
LOGIN :

S'inscrire | Disclaimer

   EN    FR    IT 

 










Légende :    VFR   VFR Marginal   IFR   IFR Intensif   IFR Très Intensif
Visi : 
Plafond : 
>= 8 km
>= 3000ft
5 à 8 km
1000 à 3000 ft
1500m à 5 km
500 à 1000 ft
800 à 1500m
200 à 500 ft
< 800m
< 200 ft
Symboles :   Orages  Brouillard  Fortes neiges  Fortes précipitations  Vent > 20 kt
SIGMETs :   Divers  Orages  Givrage  Turbulence  Onde Orograph.  Cendres Volcan.







- Altitude de l'aérodrome : 203 ft
- Code IATA : XMJ
- Voir les cartes d'approche


LFBM - Mont-De-Marsan

DERNIER METAR :
  • 161900Z AUTO VRB01KT 9999 FEW026 SCT033 BKN041 17/15 Q1019 NOSIG

METARs EXPIRÉS :
  • 161830Z AUTO 27003KT 9999 BKN030 17/15 Q1019 NOSIG
  • 161800Z AUTO 00000KT 9999 BKN030 BKN045 18/15 Q1018 NOSIG
  • 161730Z AUTO 00000KT 9999 SCT030/// BKN045/// OVC074/// ///TCU 18/15 Q1018 BECMG SCT030
  • 161700Z AUTO 03002KT 9999 FEW045/// SCT056/// OVC072/// ///TCU 19/15 Q1018 BECMG SCT030
  • 161630Z AUTO VRB01KT 9999 OVC046 20/14 Q1018 NOSIG

TAF TAF LFBM
Valide du 16 à 15h jusqu'au 17 à 15h UTC


161400Z 1615/1715 10003KT 9999 SCT030
BECMG 1623/1701 4000 BR BKN002
TEMPO 1703/1709 0500 FG VV///
BECMG 1709/1712 BKN015
Pas de NOTAMs connus pour ce terrain.



MET'MAP, la Météo Aéronautique d'un coup d'oeil ! - Copyright ORBIFLY Décembre 2007 - Disclaimer

ORBIFLY MET'MAP TEAM :

Programmation & Développement : Alexandra Zaïnal
Conception & Développement : Baudouin d'Aumeries
Co-Programmation & Développement : Marc-Olivier Méhu
Soutien technique & logistique : Manuel Goepfert

Contact : metmap@orbifly.com




SOURCES & CREDITS :

   NOAA